West Haven, Connecticut
Current Conditions -  °F | °C
As of 4:53 AM on Sunday 21 Dec 2014 (Local Time) from KHVN Reporting Station
Overcast Overcast  
Wind Chill: 28°   Ceiling: 1000
Heat Index: 35°   Visibility: 10mi
Dew Point: 29°   Wind: 9mph
Humidity: 78%   Direction: 10°N
Pressure: 30.27"   Gusts: NA
Location:  41.27°N, 72.95°W
Report Text: KHVN 210953Z AUTO 01008KT 10SM OVC010 02/M02 A3027 RMK AO2 SLP248 T00171017
Loading
Personal Weather Stations






























Interactive Weather Map New forecast layout! Learn more

10-Day Weather Forecast

Advertisements
Track Severe Weather on mobile